Time;durP1;ratioP1;P1;durP2;ratioP2;P2;SDS_P1;SDS_P2;PMS_P1;PMS_P2;Temp;Humidity;BMP_temperature;BMP_pressure;BME280_temperature;BME280_humidity;BME280_pressure;Samples;Min_cycle;Max_cycle;Signal;HPM_P1;HPM_P2
2022/09/10 00:01:02;;;;;;;1.55;0.93;;;;;;;10.45;100.00;95484.75;5100111;28;20049;-76
2022/09/10 00:03:28;;;;;;;2.33;1.23;;;;;;;10.42;100.00;95488.69;5096494;28;20042;-75
2022/09/10 00:05:54;;;;;;;1.45;1.08;;;;;;;10.37;100.00;95488.69;5094526;28;20074;-77
2022/09/10 00:08:20;;;;;;;1.58;0.85;;;;;;;10.34;100.00;95489.22;5102955;28;20695;-76
2022/09/10 00:10:49;;;;;;;1.13;0.82;;;;;;;10.36;100.00;95489.75;5084642;28;20036;-76
2022/09/10 00:13:18;;;;;;;2.72;1.00;;;;;;;10.33;100.00;95487.63;5097918;28;20044;-76
2022/09/10 00:15:46;;;;;;;5.75;1.20;;;;;;;10.35;100.00;95490.81;5081400;28;20486;-77
2022/09/10 00:18:14;;;;;;;2.40;1.05;;;;;;;10.33;100.00;95492.88;5088677;28;20048;-77
2022/09/10 00:20:52;;;;;;;0.82;0.80;;;;;;;10.32;100.00;95496.59;5086604;28;20040;-76
2022/09/10 00:23:22;;;;;;;1.70;1.02;;;;;;;10.22;100.00;95487.66;5085400;28;20047;-77
2022/09/10 00:25:49;;;;;;;0.82;0.82;;;;;;;10.27;100.00;95483.44;5090831;28;20047;-76
2022/09/10 00:28:15;;;;;;;0.93;0.75;;;;;;;10.26;100.00;95492.38;5090936;28;20124;-76
2022/09/10 00:30:45;;;;;;;1.60;0.85;;;;;;;10.32;100.00;95502.63;5086414;28;20040;-77
2022/09/10 00:33:12;;;;;;;1.02;0.70;;;;;;;10.30;100.00;95493.41;5101916;28;20669;-76
2022/09/10 00:35:39;;;;;;;3.08;1.27;;;;;;;10.33;100.00;95498.13;5097364;28;20089;-77
2022/09/10 00:38:06;;;;;;;1.40;1.17;;;;;;;10.24;100.00;95495.25;5095426;28;20032;-77
2022/09/10 00:40:31;;;;;;;2.90;0.88;;;;;;;10.33;100.00;95492.88;5086963;28;20048;-76
2022/09/10 00:42:57;;;;;;;4.22;1.00;;;;;;;10.33;100.00;95487.63;5097723;27;20086;-76
2022/09/10 00:45:32;;;;;;;2.58;0.85;;;;;;;10.31;100.00;95495.00;5095004;28;20100;-77
2022/09/10 00:48:04;;;;;;;2.25;1.05;;;;;;;10.35;100.00;95490.81;5092092;28;20386;-77
2022/09/10 00:50:36;;;;;;;4.85;1.15;;;;;;;10.34;100.00;95492.66;5098062;28;20089;-76
2022/09/10 00:53:06;;;;;;;1.00;0.95;;;;;;;10.30;100.00;95482.91;5094180;28;20561;-76
2022/09/10 00:55:34;;;;;;;1.80;1.17;;;;;;;10.26;100.00;95481.84;5087968;28;20088;-76
2022/09/10 00:58:02;;;;;;;3.10;1.02;;;;;;;10.23;100.00;95476.09;5083910;28;20050;-76
2022/09/10 01:00:30;;;;;;;1.13;1.00;;;;;;;10.23;100.00;95478.72;5087804;28;20040;-76
2022/09/10 01:02:57;;;;;;;2.78;1.10;;;;;;;10.23;100.00;95465.56;5088680;28;20040;-75
2022/09/10 01:05:24;;;;;;;0.90;0.90;;;;;;;10.21;100.00;95465.06;5086080;28;20045;-75
2022/09/10 01:07:50;;;;;;;1.25;1.15;;;;;;;10.27;100.00;95457.13;5087293;28;20055;-76
2022/09/10 01:10:22;;;;;;;1.20;1.10;;;;;;;10.32;100.00;95462.38;5080565;28;20422;-75
2022/09/10 01:13:15;;;;;;;1.50;1.17;;;;;;;10.29;100.00;95476.84;5085890;28;20037;-75
2022/09/10 01:16:07;;;;;;;4.38;1.42;;;;;;;10.26;100.00;95463.44;5087699;28;20040;-74
2022/09/10 01:18:42;;;;;;;3.28;1.15;;;;;;;10.22;100.00;95455.31;5087757;28;20055;-75
2022/09/10 01:21:29;;;;;;;1.25;1.15;;;;;;;10.28;100.00;95469.22;5087899;28;20464;-77
2022/09/10 01:24:32;;;;;;;1.75;1.08;;;;;;;10.29;100.00;95471.59;5083258;28;20038;-75
2022/09/10 01:27:29;;;;;;;2.70;1.20;;;;;;;10.32;100.00;95471.06;5085910;28;20055;-75
2022/09/10 01:30:02;;;;;;;2.70;1.15;;;;;;;10.39;100.00;95460.28;5084168;28;20059;-75
2022/09/10 01:32:45;;;;;;;2.58;1.23;;;;;;;10.46;100.00;95460.78;5074438;28;20534;-77
2022/09/10 01:35:17;;;;;;;2.22;1.20;;;;;;;10.43;100.00;95456.06;5088636;28;20039;-76
2022/09/10 01:37:53;;;;;;;2.58;1.15;;;;;;;10.41;100.00;95458.16;5087648;28;20051;-75
2022/09/10 01:40:18;;;;;;;3.47;1.40;;;;;;;10.45;100.00;95447.91;5099102;28;20036;-77
2022/09/10 01:42:45;;;;;;;2.35;1.20;;;;;;;10.45;100.00;95443.41;5087771;28;20439;-77
2022/09/10 01:45:13;;;;;;;3.53;1.40;;;;;;;10.52;100.00;95449.19;5088735;28;20156;-77
2022/09/10 01:48:02;;;;;;;2.20;1.20;;;;;;;10.55;100.00;95432.84;5089310;28;20028;-76
2022/09/10 01:50:56;;;;;;;2.58;1.23;;;;;;;10.55;100.00;95443.38;5085066;28;20047;-77
2022/09/10 01:53:47;;;;;;;1.38;1.25;;;;;;;10.55;100.00;95447.84;5081253;28;20040;-77
2022/09/10 01:56:39;;;;;;;1.75;1.20;;;;;;;10.53;100.00;95434.97;5089020;28;20697;-75
2022/09/10 01:59:21;;;;;;;1.58;1.30;;;;;;;10.49;100.00;95431.31;5084221;28;20036;-75
2022/09/10 02:01:53;;;;;;;2.70;1.10;;;;;;;10.48;100.00;95442.88;5086842;28;20044;-76
2022/09/10 02:04:21;;;;;;;1.73;0.95;;;;;;;10.50;100.00;95440.78;5087988;28;20071;-76
2022/09/10 02:06:49;;;;;;;3.88;1.20;;;;;;;10.44;100.00;95441.84;5088304;28;20044;-76
2022/09/10 02:09:17;;;;;;;2.78;0.93;;;;;;;10.42;100.00;95432.66;5087516;28;20036;-76
2022/09/10 02:11:48;;;;;;;3.88;1.20;;;;;;;10.43;100.00;95435.03;5083220;28;20040;-76
2022/09/10 02:14:15;;;;;;;1.63;1.27;;;;;;;10.37;100.00;95428.19;5082112;28;20039;-76
2022/09/10 02:16:46;;;;;;;1.20;1.10;;;;;;;10.31;100.00;95431.88;5087721;28;20536;-76
2022/09/10 02:19:14;;;;;;;1.50;1.20;;;;;;;10.30;100.00;95425.84;5086005;28;20420;-76
2022/09/10 02:21:39;;;;;;;2.17;1.17;;;;;;;10.28;100.00;95417.41;5085056;28;20063;-77
2022/09/10 02:24:09;;;;;;;1.38;1.00;;;;;;;10.23;100.00;95420.84;5086752;28;20040;-76
2022/09/10 02:26:38;;;;;;;2.25;1.13;;;;;;;10.25;100.00;95417.16;5088883;28;20409;-76
2022/09/10 02:29:05;;;;;;;2.20;1.20;;;;;;;10.19;100.00;95422.44;5085775;28;20043;-76
2022/09/10 02:31:30;;;;;;;3.08;1.20;;;;;;;10.18;100.00;95423.50;5085045;28;20047;-76
2022/09/10 02:33:56;;;;;;;2.05;1.40;;;;;;;10.19;100.00;95414.56;5087164;28;20087;-78
2022/09/10 02:36:24;;;;;;;1.48;1.08;;;;;;;10.20;100.00;95424.03;5087993;28;20040;-76
2022/09/10 02:38:55;;;;;;;3.40;1.60;;;;;;;10.21;100.00;95422.97;5078226;28;20036;-76
2022/09/10 02:41:23;;;;;;;3.58;1.50;;;;;;;10.22;100.00;95424.53;5074773;28;20063;-76
2022/09/10 02:43:48;;;;;;;2.28;1.27;;;;;;;10.20;100.00;95425.84;5086480;28;20414;-76
2022/09/10 02:46:14;;;;;;;1.58;1.25;;;;;;;10.18;100.00;95436.63;5089831;28;20032;-76
2022/09/10 02:48:39;;;;;;;2.58;1.30;;;;;;;10.18;100.00;95426.13;5091354;28;20048;-75
2022/09/10 02:51:05;;;;;;;3.90;1.00;;;;;;;10.22;100.00;95429.78;5081944;28;20040;-74
2022/09/10 02:53:30;;;;;;;2.55;1.05;;;;;;;10.22;100.00;95429.00;5089135;28;20040;-76
2022/09/10 02:55:56;;;;;;;5.63;1.35;;;;;;;10.19;100.00;95424.28;5091180;28;20044;-76
2022/09/10 02:58:22;;;;;;;2.88;1.30;;;;;;;10.20;100.00;95421.41;5089927;28;20386;-76
2022/09/10 03:00:48;;;;;;;2.20;1.13;;;;;;;10.26;100.00;95421.34;5089172;28;20040;-75
2022/09/10 03:03:15;;;;;;;1.48;1.20;;;;;;;10.17;100.00;95419.31;5083751;28;20043;-75
2022/09/10 03:05:40;;;;;;;3.25;1.35;;;;;;;10.12;100.00;95419.31;5089820;28;20101;-76
2022/09/10 03:08:08;;;;;;;1.27;1.17;;;;;;;10.12;100.00;95419.31;5085863;28;20630;-76
2022/09/10 03:10:33;;;;;;;11.50;1.35;;;;;;;10.11;100.00;95420.34;5087886;28;20036;-75
2022/09/10 03:12:59;;;;;;;2.75;1.50;;;;;;;10.05;100.00;95418.81;5088984;28;20047;-76
2022/09/10 03:15:26;;;;;;;2.08;1.30;;;;;;;10.08;100.00;95423.53;5090960;28;20042;-75
2022/09/10 03:17:51;;;;;;;3.08;1.50;;;;;;;10.01;100.00;95417.75;5089950;28;20075;-75
2022/09/10 03:20:17;;;;;;;2.58;1.30;;;;;;;10.10;100.00;95410.91;5090002;28;20060;-75
2022/09/10 03:22:43;;;;;;;2.88;1.25;;;;;;;10.08;100.00;95417.50;5082778;28;20036;-75
2022/09/10 03:25:09;;;;;;;3.28;1.20;;;;;;;10.05;100.00;95409.06;5090880;28;20036;-74
2022/09/10 03:27:35;;;;;;;2.05;1.50;;;;;;;10.01;100.00;95417.75;5090280;28;20038;-75
2022/09/10 03:30:01;;;;;;;2.13;1.17;;;;;;;9.95;100.00;95426.72;5085420;28;20479;-75
2022/09/10 03:32:27;;;;;;;2.30;1.30;;;;;;;10.09;100.00;95419.06;5087632;28;20036;-75
2022/09/10 03:34:52;;;;;;;2.97;1.35;;;;;;;10.09;100.00;95419.84;5088664;28;20040;-75
2022/09/10 03:37:18;;;;;;;3.45;1.20;;;;;;;10.09;100.00;95414.59;5083978;28;20036;-76
2022/09/10 03:39:43;;;;;;;3.15;1.42;;;;;;;10.12;100.00;95414.06;5085011;28;20487;-74
2022/09/10 03:42:09;;;;;;;1.77;1.30;;;;;;;10.18;100.00;95420.84;5077618;28;20063;-76
2022/09/10 03:44:35;;;;;;;2.70;1.30;;;;;;;10.15;100.00;95418.78;5090302;28;20047;-75
2022/09/10 03:47:01;;;;;;;2.15;1.17;;;;;;;10.23;100.00;95415.59;5087816;28;20044;-76
2022/09/10 03:49:27;;;;;;;4.38;1.42;;;;;;;10.27;100.00;95417.69;5080928;28;20028;-76
2022/09/10 03:51:53;;;;;;;1.25;1.10;;;;;;;10.31;100.00;95416.09;5087328;28;20051;-76
2022/09/10 03:54:19;;;;;;;1.98;1.25;;;;;;;10.37;100.00;95420.28;5090124;28;20115;-76
2022/09/10 03:56:45;;;;;;;2.65;1.13;;;;;;;10.37;100.00;95418.47;5089439;28;20040;-76
2022/09/10 03:59:14;;;;;;;1.52;1.15;;;;;;;10.47;100.00;95420.25;5078744;28;20992;-75
2022/09/10 04:01:40;;;;;;;2.20;1.38;;;;;;;10.53;100.00;95423.63;5088782;28;20051;-76
2022/09/10 04:04:07;;;;;;;1.17;1.00;;;;;;;10.56;100.00;95429.16;5089225;28;20044;-76
2022/09/10 04:06:34;;;;;;;1.48;1.23;;;;;;;10.53;100.00;95421.81;5089451;28;20059;-76
2022/09/10 04:09:00;;;;;;;2.08;1.10;;;;;;;10.56;100.00;95413.38;5086752;28;20036;-76
2022/09/10 04:11:30;;;;;;;4.40;1.30;;;;;;;10.65;100.00;95425.97;5088672;28;20040;-76
2022/09/10 04:13:56;;;;;;;3.53;1.35;;;;;;;10.66;100.00;95428.34;5085189;28;20040;-75
2022/09/10 04:16:22;;;;;;;1.65;1.10;;;;;;;10.66;100.00;95427.53;5087381;28;20071;-76
2022/09/10 04:18:49;;;;;;;1.15;1.02;;;;;;;10.65;100.00;95423.34;5089309;28;20042;-75
2022/09/10 04:21:15;;;;;;;1.83;1.30;;;;;;;10.66;100.00;95422.25;5088657;28;20121;-76
2022/09/10 04:23:41;;;;;;;4.97;1.40;;;;;;;10.63;100.00;95417.53;5082612;28;20073;-76
2022/09/10 04:26:13;;;;;;;1.10;1.00;;;;;;;10.60;100.00;95412.81;5089774;28;20040;-75
2022/09/10 04:28:39;;;;;;;2.13;1.40;;;;;;;10.60;100.00;95410.19;5089443;28;20044;-75
2022/09/10 04:31:05;;;;;;;2.38;1.40;;;;;;;10.64;100.00;95419.13;5086874;28;20096;-75
2022/09/10 04:33:32;;;;;;;3.00;1.30;;;;;;;10.68;100.00;95412.25;5089118;28;20054;-75
2022/09/10 04:35:59;;;;;;;6.13;1.20;;;;;;;10.73;100.00;95417.47;5089467;28;20516;-75
2022/09/10 04:38:26;;;;;;;1.42;1.20;;;;;;;10.74;100.00;95413.81;5089191;28;20572;-75
2022/09/10 04:40:51;;;;;;;2.03;1.13;;;;;;;10.80;100.00;95417.97;5075834;28;20596;-76
2022/09/10 04:43:17;;;;;;;2.40;1.27;;;;;;;10.75;100.00;95410.13;5087490;28;20125;-76
2022/09/10 04:45:43;;;;;;;1.77;1.10;;;;;;;10.85;100.00;95419.81;5089281;28;20044;-76
2022/09/10 04:48:09;;;;;;;3.75;1.30;;;;;;;10.85;100.00;95419.81;5089243;28;20207;-77
2022/09/10 04:50:35;;;;;;;1.75;1.20;;;;;;;10.81;100.00;95424.81;5073621;28;20043;-76
2022/09/10 04:53:00;;;;;;;2.47;1.33;;;;;;;10.79;100.00;95429.56;5086271;28;20040;-75
2022/09/10 04:55:26;;;;;;;1.30;1.20;;;;;;;10.84;100.00;95424.25;5089874;28;20115;-75
2022/09/10 04:57:53;;;;;;;4.97;1.25;;;;;;;10.88;100.00;95425.28;5088522;28;20047;-74
2022/09/10 05:00:18;;;;;;;2.25;1.30;;;;;;;10.86;100.00;95416.91;5085943;28;20059;-75
2022/09/10 05:02:45;;;;;;;2.15;1.30;;;;;;;10.85;100.00;95415.31;5087718;28;20116;-76
2022/09/10 05:05:11;;;;;;;3.00;1.27;;;;;;;10.91;100.00;95424.75;5089191;28;20040;-75
2022/09/10 05:07:36;;;;;;;1.48;1.10;;;;;;;10.99;100.00;95425.22;5088067;28;20046;-75
2022/09/10 05:10:01;;;;;;;1.13;1.05;;;;;;;11.02;100.00;95424.69;5084021;28;20487;-74
2022/09/10 05:12:27;;;;;;;1.35;1.00;;;;;;;11.05;100.00;95429.41;5081682;28;20433;-75
2022/09/10 05:14:53;;;;;;;1.20;1.05;;;;;;;11.08;100.00;95431.50;5084537;28;20066;-76
2022/09/10 05:17:19;;;;;;;1.50;1.40;;;;;;;11.04;100.00;95427.84;5087588;28;20504;-76
2022/09/10 05:19:44;;;;;;;5.03;1.35;;;;;;;11.07;100.00;95427.28;5087373;28;20052;-76
2022/09/10 05:22:10;;;;;;;1.73;1.25;;;;;;;11.10;100.00;95437.28;5085150;28;20494;-75
2022/09/10 05:24:35;;;;;;;1.83;1.20;;;;;;;11.12;100.00;95435.16;5085370;28;20062;-76
2022/09/10 05:27:01;;;;;;;1.65;1.30;;;;;;;11.16;100.00;95438.84;5089175;28;20097;-75
2022/09/10 05:29:27;;;;;;;1.75;1.13;;;;;;;11.16;100.00;95440.66;5076941;28;20047;-76
2022/09/10 05:31:52;;;;;;;2.00;1.40;;;;;;;11.23;100.00;95439.31;5082850;28;20039;-76
2022/09/10 05:34:17;;;;;;;1.63;1.10;;;;;;;11.25;100.00;95444.28;5087061;28;20040;-76
2022/09/10 05:36:43;;;;;;;1.55;1.10;;;;;;;11.35;100.00;95443.41;5081146;28;20033;-76
2022/09/10 05:39:09;;;;;;;2.20;1.10;;;;;;;11.32;100.00;95443.97;5081941;28;22316;-76
2022/09/10 05:41:36;;;;;;;1.92;1.27;;;;;;;11.39;100.00;95444.44;5087493;28;20047;-76
2022/09/10 05:44:01;;;;;;;1.67;1.30;;;;;;;11.41;100.00;95447.59;5086072;28;20155;-76
2022/09/10 05:46:29;;;;;;;1.30;1.10;;;;;;;11.35;100.00;95451.31;5088710;28;20115;-76
2022/09/10 05:48:55;;;;;;;5.47;1.38;;;;;;;11.34;100.00;95452.41;5086620;28;20048;-75
2022/09/10 05:51:21;;;;;;;2.00;1.42;;;;;;;11.35;100.00;95453.94;5086128;28;20111;-76
2022/09/10 05:53:47;;;;;;;3.35;1.20;;;;;;;11.42;100.00;95449.97;5086083;28;20040;-76
2022/09/10 05:56:13;;;;;;;3.47;1.20;;;;;;;11.43;100.00;95450.72;5085223;28;20048;-75
2022/09/10 05:58:38;;;;;;;6.18;1.65;;;;;;;11.46;100.00;95452.81;5080212;28;20041;-76
2022/09/10 06:01:04;;;;;;;3.58;1.42;;;;;;;11.48;100.00;95455.97;5087509;28;20101;-75
2022/09/10 06:03:29;;;;;;;2.33;1.08;;;;;;;11.51;100.00;95460.69;5088784;28;20050;-75
2022/09/10 06:05:54;;;;;;;6.18;1.30;;;;;;;11.51;100.00;95455.41;5087049;28;20059;-75
2022/09/10 06:08:21;;;;;;;1.70;1.20;;;;;;;11.60;100.00;95471.44;5082550;28;20131;-75
2022/09/10 06:10:57;;;;;;;2.40;1.15;;;;;;;11.64;100.00;95466.38;5083227;28;20132;-75
2022/09/10 06:13:23;;;;;;;6.55;1.40;;;;;;;11.61;100.00;95476.41;5084689;28;20040;-74
2022/09/10 06:15:49;;;;;;;3.15;1.50;;;;;;;11.66;100.00;95485.34;5086913;28;20649;-77
2022/09/10 06:18:14;;;;;;;2.15;1.10;;;;;;;11.58;100.00;95489.38;5085717;28;20059;-76
2022/09/10 06:20:40;;;;;;;4.55;1.52;;;;;;;11.56;100.00;95489.63;5088649;28;20050;-76
2022/09/10 06:23:06;;;;;;;3.15;1.45;;;;;;;11.52;100.00;95491.25;5088286;28;20073;-87
2022/09/10 06:25:32;;;;;;;3.00;1.50;;;;;;;11.53;100.00;95503.34;5091234;28;20469;-78
2022/09/10 06:27:57;;;;;;;6.45;1.50;;;;;;;11.48;100.00;95506.03;5091869;28;20032;-77
2022/09/10 06:30:23;;;;;;;4.47;1.50;;;;;;;11.58;100.00;95508.59;5087733;28;20048;-77
2022/09/10 06:32:48;;;;;;;5.38;1.55;;;;;;;11.53;100.00;95503.34;5091690;28;20047;-77
2022/09/10 06:35:13;;;;;;;3.20;1.30;;;;;;;11.64;100.00;95514.63;5092032;28;20047;-76
2022/09/10 06:37:39;;;;;;;3.42;1.63;;;;;;;11.65;100.00;95510.94;5091190;28;20040;-76
2022/09/10 06:40:05;;;;;;;2.65;1.23;;;;;;;11.68;100.00;95525.38;5088832;28;20559;-77
2022/09/10 06:42:31;;;;;;;9.57;1.75;;;;;;;11.61;100.00;95520.44;5085666;28;20157;-77
2022/09/10 06:44:58;;;;;;;5.60;1.50;;;;;;;11.62;100.00;95522.00;5091875;28;20036;-76
2022/09/10 06:47:25;;;;;;;4.22;1.30;;;;;;;11.63;100.00;95533.34;5089759;28;20051;-75
2022/09/10 06:49:51;;;;;;;3.47;1.50;;;;;;;11.68;100.00;95525.38;5090022;28;20097;-79
2022/09/10 06:52:17;;;;;;;4.47;1.60;;;;;;;11.65;100.00;95520.66;5088348;28;20101;-78
2022/09/10 06:54:42;;;;;;;3.63;1.35;;;;;;;11.61;100.00;95520.44;5110196;28;20035;-83
2022/09/10 06:57:07;;;;;;;3.55;1.55;;;;;;;11.63;100.00;95522.81;5091566;28;20038;-83
2022/09/10 06:59:33;;;;;;;3.33;1.38;;;;;;;11.68;100.00;95530.66;5092937;28;20040;-78
2022/09/10 07:02:00;;;;;;;4.70;1.60;;;;;;;11.78;100.00;95525.34;5098679;28;20047;-81
2022/09/10 07:04:26;;;;;;;5.38;1.25;;;;;;;11.85;100.00;95525.81;5108323;28;20595;-78
2022/09/10 07:06:53;;;;;;;1.90;1.30;;;;;;;11.88;100.00;95516.53;5087790;28;20427;-78
2022/09/10 07:09:18;;;;;;;5.25;1.40;;;;;;;11.90;100.00;95506.50;5090962;28;20105;-78
2022/09/10 07:11:44;;;;;;;3.08;1.30;;;;;;;11.90;100.00;95512.56;5087817;28;20097;-78
2022/09/10 07:14:13;;;;;;;2.40;1.25;;;;;;;11.95;100.00;95514.38;5088209;28;20040;-79
2022/09/10 07:16:40;;;;;;;2.03;0.90;;;;;;;11.99;100.00;95514.63;5085254;28;20055;-80
2022/09/10 07:19:06;;;;;;;2.15;1.27;;;;;;;11.94;100.00;95516.25;5076827;28;20047;-78
2022/09/10 07:21:36;;;;;;;1.52;1.10;;;;;;;12.00;100.00;95516.22;5085698;28;20051;-78
2022/09/10 07:24:03;;;;;;;1.35;0.68;;;;;;;11.96;100.00;95519.38;5077808;28;20047;-78
2022/09/10 07:26:29;;;;;;;2.83;1.08;;;;;;;11.99;100.00;95519.91;5089141;28;20072;-78
2022/09/10 07:28:56;;;;;;;1.27;1.00;;;;;;;12.01;100.00;95523.84;5089315;28;20490;-76
2022/09/10 07:31:26;;;;;;;5.55;1.20;;;;;;;12.06;100.00;95525.63;5086223;28;20097;-79
2022/09/10 07:33:53;;;;;;;3.45;1.40;;;;;;;12.13;100.00;95526.09;5086755;28;20036;-79
2022/09/10 07:36:19;;;;;;;3.40;0.98;;;;;;;12.18;100.00;95520.75;5090956;28;20457;-77
2022/09/10 07:38:45;;;;;;;2.85;1.10;;;;;;;12.28;100.00;95531.25;5087722;28;20884;-77
2022/09/10 07:41:12;;;;;;;2.40;1.30;;;;;;;12.37;100.00;95530.59;5087821;28;20044;-77
2022/09/10 07:43:39;;;;;;;4.63;1.27;;;;;;;12.57;100.00;95525.13;5084424;28;20047;-78
2022/09/10 07:46:05;;;;;;;2.05;1.20;;;;;;;12.54;100.00;95530.97;5090589;28;20032;-78
2022/09/10 07:48:31;;;;;;;2.47;0.88;;;;;;;12.41;100.00;95526.34;5089033;28;20040;-77
2022/09/10 07:51:04;;;;;;;1.42;0.90;;;;;;;12.43;100.00;95529.50;5088905;28;20087;-77
2022/09/10 07:53:30;;;;;;;6.18;1.23;;;;;;;12.38;100.00;95526.91;5088725;28;20044;-78
2022/09/10 07:56:05;;;;;;;0.90;0.90;;;;;;;12.36;100.00;95529.06;5087579;28;20114;-78
2022/09/10 07:58:32;;;;;;;1.88;1.00;;;;;;;12.38;100.00;95526.91;5090255;28;20047;-77
2022/09/10 08:00:58;;;;;;;1.92;1.15;;;;;;;12.39;100.00;95539.81;5087084;28;20071;-78
2022/09/10 08:03:33;;;;;;;2.80;1.00;;;;;;;12.41;100.00;95531.63;5090474;28;20499;-78
2022/09/10 08:06:00;;;;;;;1.83;1.10;;;;;;;12.51;100.00;95536.78;5088428;28;20035;-79
2022/09/10 08:08:34;;;;;;;1.38;1.20;;;;;;;12.60;100.00;95535.13;5086859;28;20478;-78
2022/09/10 08:11:11;;;;;;;1.63;1.10;;;;;;;12.62;100.00;95543.53;5088958;28;20471;-78
2022/09/10 08:13:40;;;;;;;2.55;1.08;;;;;;;12.73;100.00;95548.69;5094793;27;20040;-79
2022/09/10 08:16:11;;;;;;;2.40;1.00;;;;;;;12.73;100.00;95543.41;5087935;28;20040;-78
2022/09/10 08:18:36;;;;;;;1.40;0.98;;;;;;;12.81;100.00;95542.81;5086696;28;20040;-80
2022/09/10 08:21:04;;;;;;;1.75;1.10;;;;;;;12.91;100.00;95547.97;5087126;28;20497;-79
2022/09/10 08:23:29;;;;;;;1.85;1.20;;;;;;;12.91;100.00;95550.59;5083388;28;20111;-81
2022/09/10 08:25:55;;;;;;;2.38;1.10;;;;;;;12.95;100.00;95554.25;5088051;28;20533;-79
2022/09/10 08:28:21;;;;;;;1.02;1.00;;;;;;;13.05;100.00;95560.50;5088264;28;20040;-80
2022/09/10 08:31:08;;;;;;;3.50;1.30;;;;;;;13.06;100.00;95556.75;5087809;28;20043;-81
2022/09/10 08:33:35;;;;;;;2.22;1.20;;;;;;;13.10;100.00;95552.50;5087556;28;20040;-79
2022/09/10 08:36:02;;;;;;;4.28;1.42;;;;;;;13.20;100.00;95557.63;5088799;28;20036;-78
2022/09/10 08:38:38;;;;;;;4.07;1.58;;;;;;;13.18;100.00;95557.91;5087352;28;20422;-78
2022/09/10 08:41:45;;;;;;;1.10;1.00;;;;;;;13.37;100.00;95561.69;5085793;28;20062;-78
2022/09/10 08:44:22;;;;;;;3.28;1.38;;;;;;;13.58;100.00;95562.19;5084810;28;20036;-80
2022/09/10 08:46:55;;;;;;;1.33;0.90;;;;;;;13.54;100.00;95561.19;5089521;28;20097;-80
2022/09/10 08:49:52;;;;;;;2.92;1.30;;;;;;;13.65;100.00;95563.41;5092709;28;20044;-79
2022/09/10 08:52:23;;;;;;;2.45;0.98;;;;;;;13.66;100.00;95566.81;5086463;28;20549;-80
2022/09/10 08:55:18;;;;;;;1.20;1.08;;;;;;;13.75;100.00;95572.25;5092902;28;20043;-82
2022/09/10 08:57:49;;;;;;;3.22;1.02;;;;;;;13.83;100.00;95563.66;5093226;28;20040;-81
2022/09/10 09:00:19;;;;;;;2.83;1.20;;;;;;;13.97;100.00;95569.00;5079220;28;20513;-80
2022/09/10 09:02:55;;;;;;;1.73;0.98;;;;;;;14.00;100.00;95552.56;5080386;28;20583;-79
2022/09/10 09:05:23;;;;;;;1.60;1.10;;;;;;;14.11;100.00;95569.06;5084582;28;20040;-80
2022/09/10 09:07:50;;;;;;;3.83;1.10;;;;;;;14.15;100.00;95562.09;5088719;28;20043;-80
2022/09/10 09:10:30;;;;;;;3.03;1.30;;;;;;;14.06;100.00;95566.50;5087866;28;20069;-80
2022/09/10 09:13:21;;;;;;;1.83;1.13;;;;;;;13.98;100.00;95566.06;5090552;28;20127;-80
2022/09/10 09:15:59;;;;;;;3.67;1.10;;;;;;;14.05;100.00;95565.72;5094186;28;20762;-79
2022/09/10 09:18:36;;;;;;;1.25;1.10;;;;;;;13.96;100.00;95568.19;5109616;28;20765;-79
2022/09/10 09:21:15;;;;;;;1.67;1.15;;;;;;;13.96;100.00;95568.19;5099876;28;20048;-79
2022/09/10 09:23:54;;;;;;;1.27;1.10;;;;;;;13.94;100.00;95569.59;5089503;28;20051;-79
2022/09/10 09:26:28;;;;;;;2.20;1.20;;;;;;;13.92;100.00;95556.66;5082528;28;20570;-80
2022/09/10 09:28:59;;;;;;;2.78;1.17;;;;;;;14.00;100.00;95563.91;5076831;28;20044;-80
2022/09/10 09:31:27;;;;;;;5.72;1.23;;;;;;;14.02;100.00;95561.78;5086452;28;20044;-79
2022/09/10 09:33:59;;;;;;;1.60;1.30;;;;;;;14.17;100.00;95563.38;5089432;28;20040;-79
2022/09/10 09:36:38;;;;;;;5.72;1.08;;;;;;;14.20;100.00;95551.44;5090709;28;20048;-79
2022/09/10 09:39:15;;;;;;;1.52;0.93;;;;;;;14.37;100.00;95556.94;5116509;28;20170;-79
2022/09/10 09:41:58;;;;;;;4.32;1.50;;;;;;;14.42;100.00;95557.94;5124577;28;20032;-77
2022/09/10 09:44:27;;;;;;;4.55;1.50;;;;;;;14.37;100.00;95559.59;5119302;28;20031;-77
2022/09/10 09:46:52;;;;;;;2.70;1.30;;;;;;;14.02;100.00;95572.38;5121642;28;20036;-75
2022/09/10 09:49:18;;;;;;;9.73;1.60;;;;;;;13.69;100.00;95564.41;5121697;28;20073;-76
2022/09/10 09:51:46;;;;;;;7.32;1.40;;;;;;;13.46;100.00;95559.97;5112049;28;20028;-76
2022/09/10 09:54:22;;;;;;;7.38;1.77;;;;;;;13.32;100.00;95565.94;5119066;28;20032;-76
2022/09/10 09:56:50;;;;;;;3.42;1.40;;;;;;;13.16;100.00;95556.66;5123150;28;20030;-75
2022/09/10 09:59:34;;;;;;;3.17;1.13;;;;;;;12.84;100.00;95563.38;5123687;28;20091;-76
2022/09/10 10:02:10;;;;;;;4.15;1.48;;;;;;;12.63;100.00;95554.91;5120265;28;20058;-77
2022/09/10 10:04:35;;;;;;;10.57;1.02;;;;;;;12.63;100.00;95560.97;5118345;28;20020;-74
2022/09/10 10:07:01;;;;;;;3.60;1.30;;;;;;;12.56;100.00;95536.75;5108568;28;20031;-75
2022/09/10 10:09:30;;;;;;;2.85;1.38;;;;;;;12.46;100.00;95552.69;5121491;28;20032;-75
2022/09/10 10:11:58;;;;;;;3.17;1.40;;;;;;;12.57;100.00;95559.44;5114212;28;20046;-77
2022/09/10 10:14:38;;;;;;;5.55;2.20;;;;;;;12.61;100.00;95565.75;5103463;28;20039;-77
2022/09/10 10:17:23;;;;;;;4.50;1.80;;;;;;;12.57;100.00;95556.81;5099903;28;20040;-76
2022/09/10 10:20:01;;;;;;;4.30;1.70;;;;;;;12.54;100.00;95541.53;5087974;28;20116;-77
2022/09/10 10:22:31;;;;;;;8.73;2.30;;;;;;;12.56;100.00;95547.31;5088205;28;20128;-77
2022/09/10 10:24:59;;;;;;;4.38;2.10;;;;;;;12.80;100.00;95554.44;5091251;28;20044;-77
2022/09/10 10:27:34;;;;;;;4.55;1.80;;;;;;;12.82;100.00;95552.31;5096049;28;20043;-77
2022/09/10 10:30:04;;;;;;;8.00;1.95;;;;;;;12.87;100.00;95554.88;5093190;28;20490;-77
2022/09/10 10:32:41;;;;;;;7.20;1.75;;;;;;;12.94;100.00;95550.06;5085049;28;20036;-78
2022/09/10 10:35:38;;;;;;;6.32;1.85;;;;;;;12.89;100.00;95542.19;5092456;28;20036;-78
2022/09/10 10:38:12;;;;;;;4.13;1.85;;;;;;;12.87;100.00;95554.09;5092679;28;20091;-78
2022/09/10 10:40:47;;;;;;;4.32;1.88;;;;;;;13.04;100.00;95543.84;5095779;28;20032;-78
2022/09/10 10:43:50;;;;;;;4.03;1.90;;;;;;;13.31;100.00;95543.22;5079554;28;20788;-79
2022/09/10 10:46:21;;;;;;;3.20;1.92;;;;;;;13.72;100.00;95547.19;5083384;28;20044;-78
2022/09/10 10:49:30;;;;;;;3.75;1.90;;;;;;;13.82;100.00;95535.63;5091722;28;20051;-78
2022/09/10 10:52:32;;;;;;;2.95;1.42;;;;;;;14.36;100.00;95530.75;5083124;28;20059;-77
2022/09/10 10:55:16;;;;;;;3.88;1.73;;;;;;;14.72;100.00;95536.22;5086296;28;20040;-78
2022/09/10 10:58:00;;;;;;;2.45;1.40;;;;;;;14.66;100.00;95526.78;5093403;28;20448;-77
2022/09/10 11:00:30;;;;;;;2.57;1.30;;;;;;;14.57;100.00;95528.53;5092144;28;20047;-79
2022/09/10 11:03:14;;;;;;;1.65;1.17;;;;;;;14.73;100.00;95532.47;5098994;28;20016;-77
2022/09/10 11:05:56;;;;;;;2.20;1.30;;;;;;;14.84;100.00;95521.66;5102139;28;20036;-78
2022/09/10 11:08:34;;;;;;;3.25;0.90;;;;;;;14.85;100.00;95524.03;5084659;28;20508;-77
2022/09/10 11:11:19;;;;;;;5.82;1.25;;;;;;;15.15;100.00;95521.06;5100321;28;20044;-76
2022/09/10 11:13:49;;;;;;;1.30;1.20;;;;;;;15.69;100.00;95519.31;5092161;28;20048;-78
2022/09/10 11:16:27;;;;;;;1.33;1.23;;;;;;;15.85;100.00;95525.06;5098631;28;20040;-76
2022/09/10 11:19:01;;;;;;;2.47;1.33;;;;;;;15.96;100.00;95517.66;5093775;28;20052;-77
2022/09/10 11:21:57;;;;;;;1.30;1.08;;;;;;;16.04;100.00;95519.56;5089698;28;20040;-77
2022/09/10 11:24:39;;;;;;;4.35;1.17;;;;;;;15.95;100.00;95521.38;5090317;28;20565;-76
2022/09/10 11:27:11;;;;;;;2.03;1.27;;;;;;;15.49;100.00;95525.09;5092192;28;20045;-77
2022/09/10 11:29:37;;;;;;;3.08;1.10;;;;;;;15.52;100.00;95524.50;5092404;28;20048;-76
2022/09/10 11:32:11;;;;;;;3.97;1.60;;;;;;;16.28;100.00;95523.75;5089182;28;20039;-77
2022/09/10 11:34:52;;;;;;;;;;;;;;;16.55;100.00;95511.34;5093368;28;20036;-78
2022/09/10 11:37:39;;;;;;;2.72;1.10;;;;;;;16.52;100.00;95511.97;5090913;28;19924;-78
2022/09/10 11:40:15;;;;;;;4.40;1.20;;;;;;;16.58;100.00;95522.16;5087074;28;20409;-78